createdAt,value
2022-10-02T00:01:16.915Z,100.00
2022-10-02T00:03:45.694Z,100.00
2022-10-02T00:06:23.396Z,100.00
2022-10-02T00:08:54.775Z,100.00
2022-10-02T00:11:26.930Z,100.00
2022-10-02T00:13:55.140Z,100.00
2022-10-02T00:16:27.799Z,100.00
2022-10-02T00:18:56.231Z,100.00
2022-10-02T00:21:33.807Z,100.00
2022-10-02T00:24:03.077Z,100.00
2022-10-02T00:26:44.709Z,100.00
2022-10-02T00:29:24.831Z,100.00
2022-10-02T00:32:06.554Z,100.00
2022-10-02T00:34:57.549Z,100.00
2022-10-02T00:37:46.095Z,100.00
2022-10-02T00:40:43.394Z,100.00
2022-10-02T00:43:19.550Z,100.00
2022-10-02T00:46:14.325Z,100.00
2022-10-02T00:48:53.550Z,100.00
2022-10-02T00:51:44.129Z,100.00
2022-10-02T00:54:41.353Z,100.00
2022-10-02T00:57:19.798Z,100.00
2022-10-02T00:59:53.942Z,100.00
2022-10-02T01:02:26.456Z,100.00
2022-10-02T01:04:53.280Z,100.00
2022-10-02T01:07:20.850Z,100.00
2022-10-02T01:09:47.352Z,100.00
2022-10-02T01:12:14.923Z,100.00
2022-10-02T01:14:41.488Z,100.00
2022-10-02T01:17:23.813Z,100.00
2022-10-02T01:19:50.913Z,100.00
2022-10-02T01:22:26.209Z,100.00
2022-10-02T01:24:57.206Z,100.00
2022-10-02T01:27:24.974Z,100.00
2022-10-02T01:29:59.513Z,100.00
2022-10-02T01:32:27.250Z,100.00
2022-10-02T01:34:54.558Z,100.00
2022-10-02T01:37:24.491Z,100.00
2022-10-02T01:39:52.578Z,100.00
2022-10-02T01:42:21.163Z,100.00
2022-10-02T01:44:48.458Z,100.00
2022-10-02T01:47:43.743Z,100.00
2022-10-02T01:50:21.318Z,100.00
2022-10-02T01:52:53.709Z,100.00
2022-10-02T01:55:30.757Z,100.00
2022-10-02T01:58:15.300Z,100.00
2022-10-02T02:01:20.532Z,100.00
2022-10-02T02:03:55.129Z,100.00
2022-10-02T02:06:30.876Z,100.00
2022-10-02T02:09:26.333Z,100.00
2022-10-02T02:12:12.035Z,100.00
2022-10-02T02:14:53.012Z,100.00
2022-10-02T02:17:26.542Z,100.00
2022-10-02T02:20:03.580Z,100.00
2022-10-02T02:22:34.190Z,100.00
2022-10-02T02:25:12.160Z,100.00
2022-10-02T02:27:42.729Z,100.00
2022-10-02T02:30:12.031Z,100.00
2022-10-02T02:33:02.225Z,100.00
2022-10-02T02:35:36.783Z,100.00
2022-10-02T02:38:11.342Z,100.00
2022-10-02T02:40:41.870Z,100.00
2022-10-02T02:43:17.567Z,100.00
2022-10-02T02:45:50.235Z,100.00
2022-10-02T02:48:29.623Z,100.00
2022-10-02T02:51:04.517Z,100.00
2022-10-02T02:53:49.373Z,100.00
2022-10-02T02:56:19.718Z,100.00
2022-10-02T02:58:54.006Z,100.00
2022-10-02T03:01:21.140Z,100.00
2022-10-02T03:03:47.590Z,100.00
2022-10-02T03:06:17.011Z,100.00
2022-10-02T03:08:45.152Z,100.00
2022-10-02T03:11:11.457Z,100.00
2022-10-02T03:13:49.080Z,100.00
2022-10-02T03:16:27.177Z,100.00
2022-10-02T03:19:01.146Z,100.00
2022-10-02T03:21:44.609Z,100.00
2022-10-02T03:24:29.219Z,100.00
2022-10-02T03:27:04.295Z,100.00
2022-10-02T03:29:56.659Z,100.00
2022-10-02T03:32:24.983Z,100.00
2022-10-02T03:34:52.519Z,100.00
2022-10-02T03:37:19.118Z,100.00
2022-10-02T03:39:45.954Z,100.00
2022-10-02T03:42:14.461Z,100.00
2022-10-02T03:44:41.819Z,100.00
2022-10-02T03:47:08.130Z,100.00
2022-10-02T03:49:34.641Z,100.00
2022-10-02T03:52:01.231Z,100.00
2022-10-02T03:54:33.941Z,100.00
2022-10-02T03:57:05.498Z,100.00
2022-10-02T03:59:48.011Z,100.00
2022-10-02T04:02:29.306Z,100.00
2022-10-02T04:05:01.910Z,100.00
2022-10-02T04:07:34.283Z,100.00
2022-10-02T04:10:14.175Z,100.00
2022-10-02T04:12:49.104Z,100.00
2022-10-02T04:15:31.023Z,100.00
2022-10-02T04:18:05.808Z,100.00
2022-10-02T04:20:43.546Z,100.00
2022-10-02T04:23:27.094Z,100.00
2022-10-02T04:26:00.934Z,100.00
2022-10-02T04:28:41.809Z,100.00
2022-10-02T04:31:12.398Z,100.00
2022-10-02T04:33:39.281Z,100.00
2022-10-02T04:36:14.578Z,100.00
2022-10-02T04:39:18.257Z,100.00
2022-10-02T04:41:57.714Z,100.00
2022-10-02T04:45:00.843Z,100.00
2022-10-02T04:47:51.072Z,100.00
2022-10-02T04:50:35.438Z,100.00
2022-10-02T04:53:25.376Z,100.00
2022-10-02T04:56:03.269Z,100.00
2022-10-02T04:58:56.533Z,100.00
2022-10-02T05:01:36.147Z,100.00
2022-10-02T05:04:31.637Z,100.00
2022-10-02T05:07:40.766Z,100.00
2022-10-02T05:10:33.435Z,100.00
2022-10-02T05:13:13.968Z,100.00
2022-10-02T05:15:43.617Z,100.00
2022-10-02T05:18:28.800Z,100.00
2022-10-02T05:21:34.399Z,100.00
2022-10-02T05:24:33.792Z,100.00
2022-10-02T05:27:30.972Z,100.00
2022-10-02T05:29:59.952Z,100.00
2022-10-02T05:32:38.463Z,100.00
2022-10-02T05:35:23.602Z,100.00
2022-10-02T05:38:14.960Z,100.00
2022-10-02T05:40:57.980Z,100.00
2022-10-02T05:43:30.797Z,100.00
2022-10-02T05:46:02.140Z,100.00
2022-10-02T05:48:44.079Z,100.00
2022-10-02T05:51:20.849Z,100.00
2022-10-02T05:53:55.523Z,100.00
2022-10-02T05:56:27.062Z,100.00
2022-10-02T05:59:09.661Z,100.00
2022-10-02T06:01:41.825Z,100.00
2022-10-02T06:04:42.040Z,100.00
2022-10-02T06:07:12.138Z,100.00
2022-10-02T06:10:10.881Z,100.00
2022-10-02T06:12:42.635Z,100.00
2022-10-02T06:15:21.102Z,100.00
2022-10-02T06:17:54.600Z,100.00
2022-10-02T06:20:33.927Z,100.00
2022-10-02T06:23:10.388Z,100.00
2022-10-02T06:25:55.078Z,100.00
2022-10-02T06:28:24.633Z,100.00
2022-10-02T06:31:04.867Z,100.00
2022-10-02T06:33:32.234Z,100.00
2022-10-02T06:36:04.379Z,100.00
2022-10-02T06:38:39.619Z,100.00
2022-10-02T06:41:15.149Z,100.00
2022-10-02T06:43:49.964Z,100.00
2022-10-02T06:46:51.295Z,100.00
2022-10-02T06:49:57.470Z,100.00
2022-10-02T06:52:38.104Z,100.00
2022-10-02T06:55:25.934Z,100.00
2022-10-02T06:58:30.134Z,100.00
2022-10-02T07:01:19.927Z,100.00
2022-10-02T07:04:14.890Z,97.79
2022-10-02T07:07:06.284Z,93.56
2022-10-02T07:10:00.022Z,91.46
2022-10-02T07:12:44.930Z,89.97
2022-10-02T07:15:41.093Z,86.08
2022-10-02T07:18:40.934Z,85.34
2022-10-02T07:21:18.351Z,85.48
2022-10-02T07:23:53.158Z,84.99
2022-10-02T07:26:45.549Z,84.82
2022-10-02T07:29:36.717Z,84.26
2022-10-02T07:32:27.475Z,83.87
2022-10-02T07:35:18.467Z,83.57
2022-10-02T07:38:22.303Z,82.31
2022-10-02T07:41:02.094Z,82.49
2022-10-02T07:43:59.288Z,81.28
2022-10-02T07:47:06.851Z,81.15
2022-10-02T07:49:39.056Z,82.46
2022-10-02T07:52:24.782Z,83.35
2022-10-02T07:55:19.941Z,81.95
2022-10-02T07:58:09.509Z,79.98
2022-10-02T08:00:42.928Z,78.57
2022-10-02T08:03:17.040Z,78.84
2022-10-02T08:05:56.237Z,76.96
2022-10-02T08:08:36.411Z,74.40
2022-10-02T08:11:09.259Z,74.28
2022-10-02T08:13:43.535Z,71.93
2022-10-02T08:16:13.840Z,71.78
2022-10-02T08:18:48.899Z,72.06
2022-10-02T08:21:20.260Z,71.77
2022-10-02T08:23:56.310Z,71.45
2022-10-02T08:26:35.849Z,70.50
2022-10-02T08:29:08.284Z,70.87
2022-10-02T08:31:35.154Z,70.85
2022-10-02T08:34:15.622Z,71.01
2022-10-02T08:37:12.928Z,70.39
2022-10-02T08:40:03.004Z,69.59
2022-10-02T08:43:03.629Z,67.75
2022-10-02T08:45:55.512Z,66.70
2022-10-02T08:48:49.913Z,65.81
2022-10-02T08:51:19.012Z,66.28
2022-10-02T08:53:45.290Z,67.38
2022-10-02T08:56:42.440Z,63.99
2022-10-02T08:59:28.331Z,64.30
2022-10-02T09:02:07.992Z,61.80
2022-10-02T09:05:01.454Z,64.20
2022-10-02T09:07:56.948Z,64.89
2022-10-02T09:10:58.478Z,66.85
2022-10-02T09:14:06.727Z,66.01
2022-10-02T09:16:47.110Z,66.95
2022-10-02T09:19:25.243Z,65.88
2022-10-02T09:22:04.605Z,63.76
2022-10-02T09:25:07.785Z,63.03
2022-10-02T09:28:08.665Z,63.71
2022-10-02T09:30:35.010Z,66.10
2022-10-02T09:33:23.283Z,64.79
2022-10-02T09:36:08.451Z,67.27
2022-10-02T09:38:53.082Z,65.38
2022-10-02T09:41:44.147Z,63.45
2022-10-02T09:44:25.661Z,65.19
2022-10-02T09:47:50.573Z,67.01
2022-10-02T09:50:37.913Z,65.58
2022-10-02T09:53:42.047Z,63.93
2022-10-02T09:56:44.527Z,65.21
2022-10-02T09:59:40.851Z,64.79
2022-10-02T10:02:44.687Z,65.92
2022-10-02T10:05:25.562Z,68.79
2022-10-02T10:08:13.440Z,68.70
2022-10-02T10:10:59.837Z,68.71
2022-10-02T10:14:04.440Z,68.31
2022-10-02T10:16:39.630Z,68.57
2022-10-02T10:19:27.737Z,69.34
2022-10-02T10:22:10.496Z,67.66
2022-10-02T10:24:58.702Z,68.75
2022-10-02T10:27:50.181Z,68.28
2022-10-02T10:30:44.405Z,62.88
2022-10-02T10:34:00.342Z,65.06
2022-10-02T10:36:50.354Z,63.67
2022-10-02T10:39:35.341Z,66.53
2022-10-02T10:42:56.040Z,68.12
2022-10-02T10:45:39.863Z,65.45
2022-10-02T10:48:28.298Z,67.66
2022-10-02T10:51:02.488Z,68.44
2022-10-02T10:53:44.702Z,67.07
2022-10-02T10:56:26.278Z,67.69
2022-10-02T10:59:30.341Z,68.49
2022-10-02T11:02:14.710Z,68.28
2022-10-02T11:05:06.014Z,67.36
2022-10-02T11:07:52.605Z,68.42
2022-10-02T11:10:55.891Z,69.57
2022-10-02T11:13:22.160Z,69.91
2022-10-02T11:16:13.569Z,70.55
2022-10-02T11:18:45.231Z,70.24
2022-10-02T11:21:40.215Z,71.10
2022-10-02T11:24:31.702Z,67.55
2022-10-02T11:27:30.630Z,68.09
2022-10-02T11:30:25.337Z,66.61
2022-10-02T11:33:48.736Z,67.59
2022-10-02T11:36:34.435Z,65.90
2022-10-02T11:39:06.586Z,68.95
2022-10-02T11:42:00.489Z,67.62
2022-10-02T11:44:45.168Z,66.56
2022-10-02T11:47:23.522Z,66.38
2022-10-02T11:50:13.312Z,67.27
2022-10-02T11:53:00.891Z,65.72
2022-10-02T11:55:51.583Z,67.72
2022-10-02T11:58:40.045Z,64.10
2022-10-02T12:01:15.297Z,64.84
2022-10-02T12:03:56.968Z,65.05
2022-10-02T12:06:51.934Z,66.36
2022-10-02T12:10:05.730Z,63.05
2022-10-02T12:12:59.032Z,65.88
2022-10-02T12:15:44.913Z,61.00
2022-10-02T12:18:21.993Z,61.25
2022-10-02T12:21:08.564Z,61.25
2022-10-02T12:23:46.727Z,64.42
2022-10-02T12:26:40.334Z,67.03
2022-10-02T12:29:16.212Z,63.24
2022-10-02T12:31:56.677Z,63.93
2022-10-02T12:34:23.038Z,63.51
2022-10-02T12:37:00.846Z,63.41
2022-10-02T12:39:45.523Z,58.27
2022-10-02T12:42:30.245Z,61.43
2022-10-02T12:45:28.112Z,61.57
2022-10-02T12:48:07.313Z,60.42
2022-10-02T12:50:54.002Z,61.88
2022-10-02T12:53:55.387Z,62.02
2022-10-02T12:56:49.849Z,62.18
2022-10-02T12:59:21.949Z,63.17
2022-10-02T13:02:09.279Z,63.64
2022-10-02T13:05:03.942Z,65.95
2022-10-02T13:07:42.452Z,66.58
2022-10-02T13:10:28.030Z,66.87
2022-10-02T13:13:12.569Z,67.29
2022-10-02T13:15:47.090Z,66.44
2022-10-02T13:18:36.000Z,67.03
2022-10-02T13:21:20.990Z,66.45
2022-10-02T13:24:00.729Z,65.91
2022-10-02T13:26:53.209Z,66.56
2022-10-02T13:29:39.733Z,64.15
2022-10-02T13:32:25.145Z,66.31
2022-10-02T13:35:15.501Z,63.07
2022-10-02T13:37:47.885Z,63.84
2022-10-02T13:40:41.484Z,64.81
2022-10-02T13:43:43.666Z,65.52
2022-10-02T13:46:25.833Z,66.06
2022-10-02T13:49:02.785Z,65.04
2022-10-02T13:51:42.495Z,65.17
2022-10-02T13:54:43.785Z,65.77
2022-10-02T13:57:28.146Z,67.74
2022-10-02T14:00:14.194Z,65.80
2022-10-02T14:03:10.982Z,65.85
2022-10-02T14:05:58.175Z,68.38
2022-10-02T14:08:44.835Z,65.09
2022-10-02T14:11:18.995Z,64.26
2022-10-02T14:13:54.431Z,68.03
2022-10-02T14:16:44.151Z,65.94
2022-10-02T14:19:52.071Z,65.00
2022-10-02T14:22:37.091Z,66.81
2022-10-02T14:25:31.825Z,66.41
2022-10-02T14:28:13.496Z,67.85
2022-10-02T14:30:57.856Z,67.25
2022-10-02T14:33:57.902Z,66.74
2022-10-02T14:36:39.899Z,70.19
2022-10-02T14:39:12.117Z,68.53
2022-10-02T14:41:50.993Z,68.33
2022-10-02T14:44:45.719Z,68.37
2022-10-02T14:47:34.680Z,68.68
2022-10-02T14:50:31.312Z,68.86
2022-10-02T14:53:19.664Z,70.11
2022-10-02T14:55:48.942Z,70.09
2022-10-02T14:58:29.191Z,69.96
2022-10-02T15:00:58.314Z,69.82
2022-10-02T15:03:43.191Z,69.66
2022-10-02T15:06:20.586Z,70.01
2022-10-02T15:08:53.206Z,68.23
2022-10-02T15:11:44.738Z,68.75
2022-10-02T15:14:35.909Z,70.36
2022-10-02T15:17:17.015Z,70.03
2022-10-02T15:19:51.418Z,66.93
2022-10-02T15:22:44.552Z,68.23
2022-10-02T15:25:17.728Z,67.29
2022-10-02T15:27:54.685Z,69.22
2022-10-02T15:30:23.599Z,68.92
2022-10-02T15:33:02.263Z,68.78
2022-10-02T15:35:37.699Z,67.74
2022-10-02T15:38:33.178Z,68.80
2022-10-02T15:41:28.668Z,69.17
2022-10-02T15:44:01.886Z,69.87
2022-10-02T15:46:45.587Z,68.99
2022-10-02T15:49:27.279Z,71.04
2022-10-02T15:52:07.198Z,70.36
2022-10-02T15:54:47.879Z,68.81
2022-10-02T15:57:38.748Z,71.22
2022-10-02T16:00:08.123Z,72.08
2022-10-02T16:02:55.665Z,71.68
2022-10-02T16:05:31.691Z,72.80
2022-10-02T16:08:17.866Z,73.70
2022-10-02T16:11:18.315Z,71.65
2022-10-02T16:13:53.553Z,72.40
2022-10-02T16:16:38.405Z,72.85
2022-10-02T16:19:44.099Z,72.39
2022-10-02T16:22:22.501Z,72.41
2022-10-02T16:24:49.149Z,73.01
2022-10-02T16:27:25.496Z,72.04
2022-10-02T16:30:01.182Z,69.35
2022-10-02T16:32:42.971Z,68.65
2022-10-02T16:35:24.950Z,70.46
2022-10-02T16:37:59.146Z,70.31
2022-10-02T16:41:00.711Z,68.48
2022-10-02T16:43:55.841Z,70.28
2022-10-02T16:46:34.429Z,70.21
2022-10-02T16:49:18.164Z,71.08
2022-10-02T16:52:06.077Z,72.09
2022-10-02T16:54:51.614Z,72.47
2022-10-02T16:57:17.914Z,72.52
2022-10-02T16:59:51.541Z,72.84
2022-10-02T17:02:20.782Z,73.14
2022-10-02T17:05:07.319Z,73.76
2022-10-02T17:08:16.685Z,74.33
2022-10-02T17:11:06.142Z,74.86
2022-10-02T17:13:37.341Z,74.83
2022-10-02T17:16:18.844Z,75.48
2022-10-02T17:18:56.041Z,75.91
2022-10-02T17:21:39.468Z,76.72
2022-10-02T17:24:24.040Z,77.00
2022-10-02T17:27:06.487Z,77.09
2022-10-02T17:29:54.053Z,77.72
2022-10-02T17:32:46.661Z,78.01
2022-10-02T17:35:23.985Z,77.73
2022-10-02T17:38:17.879Z,78.29
2022-10-02T17:41:16.672Z,78.42
2022-10-02T17:44:04.586Z,78.42
2022-10-02T17:46:58.459Z,78.85
2022-10-02T17:49:54.938Z,78.92
2022-10-02T17:52:53.113Z,79.43
2022-10-02T17:55:47.247Z,80.11
2022-10-02T17:58:16.545Z,79.87
2022-10-02T18:01:13.306Z,80.37
2022-10-02T18:03:49.274Z,80.78
2022-10-02T18:06:27.526Z,81.33
2022-10-02T18:09:31.127Z,81.77
2022-10-02T18:12:22.019Z,81.92
2022-10-02T18:15:14.571Z,82.09
2022-10-02T18:17:54.124Z,81.56
2022-10-02T18:20:32.459Z,81.96
2022-10-02T18:23:39.802Z,82.97
2022-10-02T18:26:35.454Z,83.21
2022-10-02T18:29:32.570Z,83.54
2022-10-02T18:32:33.594Z,83.54
2022-10-02T18:35:30.511Z,83.71
2022-10-02T18:38:16.979Z,83.65
2022-10-02T18:41:14.262Z,83.76
2022-10-02T18:43:53.952Z,84.29
2022-10-02T18:46:43.425Z,84.72
2022-10-02T18:49:40.734Z,85.58
2022-10-02T18:52:45.594Z,85.69
2022-10-02T18:55:34.585Z,85.59
2022-10-02T18:58:09.888Z,85.43
2022-10-02T19:01:13.352Z,85.87
2022-10-02T19:04:05.999Z,86.46
2022-10-02T19:06:42.053Z,86.84
2022-10-02T19:09:08.316Z,86.34
2022-10-02T19:11:43.073Z,87.20
2022-10-02T19:14:15.386Z,86.97
2022-10-02T19:16:56.800Z,87.16
2022-10-02T19:19:24.033Z,86.97
2022-10-02T19:21:54.931Z,87.34
2022-10-02T19:24:30.783Z,87.35
2022-10-02T19:27:00.790Z,87.61
2022-10-02T19:29:32.475Z,87.76
2022-10-02T19:32:07.504Z,87.64
2022-10-02T19:34:33.961Z,87.57
2022-10-02T19:37:05.698Z,87.63
2022-10-02T19:39:39.083Z,87.57
2022-10-02T19:42:14.710Z,88.00
2022-10-02T19:44:46.720Z,88.17
2022-10-02T19:47:19.251Z,87.95
2022-10-02T19:49:49.162Z,88.77
2022-10-02T19:52:34.045Z,89.20
2022-10-02T19:55:04.002Z,88.92
2022-10-02T19:57:38.900Z,89.95
2022-10-02T20:00:14.254Z,90.33
2022-10-02T20:02:45.023Z,90.03
2022-10-02T20:05:19.210Z,90.35
2022-10-02T20:07:48.221Z,90.72
2022-10-02T20:10:24.990Z,91.08
2022-10-02T20:13:17.153Z,91.50
2022-10-02T20:15:53.681Z,91.44
2022-10-02T20:18:20.030Z,92.28
2022-10-02T20:20:47.446Z,91.55
2022-10-02T20:23:25.642Z,91.84
2022-10-02T20:25:56.674Z,92.56
2022-10-02T20:28:34.695Z,91.87
2022-10-02T20:31:12.135Z,92.34
2022-10-02T20:33:45.251Z,92.92
2022-10-02T20:36:19.608Z,92.71
2022-10-02T20:38:56.389Z,92.96
2022-10-02T20:41:27.730Z,93.53
2022-10-02T20:44:00.087Z,94.33
2022-10-02T20:46:45.464Z,94.66
2022-10-02T20:49:33.646Z,94.19
2022-10-02T20:52:23.182Z,94.28
2022-10-02T20:55:09.792Z,94.58
2022-10-02T20:58:06.057Z,94.79
2022-10-02T21:01:11.362Z,94.40
2022-10-02T21:03:40.697Z,93.62
2022-10-02T21:06:31.805Z,93.80
2022-10-02T21:09:32.474Z,93.91
2022-10-02T21:12:33.506Z,93.78
2022-10-02T21:15:46.317Z,94.36
2022-10-02T21:18:37.059Z,93.96
2022-10-02T21:21:35.262Z,93.88
2022-10-02T21:24:16.864Z,94.45
2022-10-02T21:27:04.620Z,94.79
2022-10-02T21:29:37.091Z,95.58
2022-10-02T21:32:38.359Z,95.89
2022-10-02T21:35:11.841Z,95.27
2022-10-02T21:38:08.648Z,96.33
2022-10-02T21:40:57.923Z,96.49
2022-10-02T21:43:42.596Z,97.23
2022-10-02T21:46:36.503Z,97.22
2022-10-02T21:49:25.969Z,97.09
2022-10-02T21:52:13.633Z,96.51
2022-10-02T21:54:45.978Z,96.84
2022-10-02T21:57:41.459Z,96.75
2022-10-02T22:00:20.830Z,97.18
2022-10-02T22:03:08.608Z,97.04
2022-10-02T22:05:53.018Z,97.37
2022-10-02T22:08:39.274Z,97.53
2022-10-02T22:11:34.142Z,97.64
2022-10-02T22:14:16.145Z,97.47
2022-10-02T22:17:07.581Z,97.69
2022-10-02T22:19:49.480Z,97.81
2022-10-02T22:22:30.488Z,97.78
2022-10-02T22:25:02.519Z,97.78
2022-10-02T22:27:44.015Z,98.01
2022-10-02T22:30:26.394Z,98.08
2022-10-02T22:33:24.938Z,98.86
2022-10-02T22:35:51.201Z,98.27
2022-10-02T22:38:37.873Z,98.66
2022-10-02T22:41:26.042Z,99.07
2022-10-02T22:44:10.059Z,98.63
2022-10-02T22:47:09.151Z,98.72
2022-10-02T22:49:46.161Z,98.54
2022-10-02T22:52:47.249Z,98.53
2022-10-02T22:55:19.368Z,98.16
2022-10-02T22:58:23.059Z,98.04
2022-10-02T23:00:58.562Z,97.84
2022-10-02T23:03:36.148Z,98.17
2022-10-02T23:06:12.421Z,98.61
2022-10-02T23:08:46.968Z,98.84
2022-10-02T23:11:25.194Z,98.71
2022-10-02T23:14:07.781Z,98.49
2022-10-02T23:16:49.561Z,98.77
2022-10-02T23:19:25.785Z,98.71
2022-10-02T23:21:58.405Z,99.32
2022-10-02T23:24:38.534Z,99.82
2022-10-02T23:27:14.019Z,99.66
2022-10-02T23:29:54.238Z,99.76
2022-10-02T23:32:44.498Z,99.68
2022-10-02T23:35:13.836Z,100.00
2022-10-02T23:37:40.076Z,99.76
2022-10-02T23:40:23.203Z,100.00
2022-10-02T23:42:54.375Z,99.92
2022-10-02T23:45:24.215Z,100.00
2022-10-02T23:48:04.615Z,100.00
2022-10-02T23:50:46.015Z,100.00
2022-10-02T23:53:37.338Z,100.00
2022-10-02T23:56:21.828Z,100.00
2022-10-02T23:59:26.231Z,100.00
